createdAt,value
2022-10-13T05:53:49.594Z,60.40
2022-10-13T05:56:23.994Z,67.90
2022-10-13T05:58:54.851Z,64.65
2022-10-13T06:01:24.797Z,66.60
2022-10-13T06:03:53.786Z,69.28
2022-10-13T06:06:22.052Z,56.83
2022-10-13T06:08:50.629Z,67.15
2022-10-13T06:11:17.821Z,72.35
2022-10-13T06:13:44.861Z,61.63
2022-10-13T06:16:11.784Z,63.08
2022-10-13T06:18:38.723Z,68.80
2022-10-13T06:21:05.989Z,74.32
2022-10-13T08:39:14.026Z,94.65
2022-10-13T08:41:46.624Z,95.10
2022-10-13T08:47:32.337Z,75.90
2022-10-13T08:50:05.085Z,80.43
2022-10-13T08:52:54.321Z,72.88
2022-10-13T08:55:42.208Z,72.97
2022-10-13T08:58:28.691Z,68.40
2022-10-13T09:01:26.485Z,75.13
2022-10-13T09:04:17.926Z,87.07
2022-10-13T09:06:51.942Z,77.80
2022-10-13T09:09:19.031Z,87.53
2022-10-13T09:11:49.562Z,83.43
2022-10-13T09:14:33.221Z,92.60
2022-10-13T09:17:22.469Z,109.70
2022-10-13T09:20:02.936Z,97.45
2022-10-13T09:22:36.514Z,110.93
2022-10-13T09:25:22.563Z,107.05
2022-10-13T09:27:50.717Z,91.82
2022-10-13T09:30:35.584Z,103.28
2022-10-13T09:33:08.962Z,101.70
2022-10-13T09:35:44.427Z,110.43
2022-10-13T09:38:25.334Z,100.95
2022-10-13T09:41:06.102Z,104.07
2022-10-13T09:44:08.178Z,108.82
2022-10-13T09:49:21.151Z,92.63
2022-10-13T09:51:48.957Z,107.60
2022-10-13T09:54:33.816Z,109.00
2022-10-13T09:57:06.094Z,109.35
2022-10-13T09:59:41.933Z,115.80
2022-10-13T10:02:34.983Z,108.63
2022-10-13T10:05:26.269Z,107.10
2022-10-13T10:07:53.786Z,103.82
2022-10-13T10:10:39.502Z,97.45
2022-10-13T10:13:08.449Z,100.30
2022-10-13T10:16:31.407Z,107.05
2022-10-13T10:19:26.745Z,96.13
2022-10-13T10:22:07.888Z,100.20
2022-10-13T10:24:52.480Z,116.30
2022-10-13T10:27:26.802Z,101.30
2022-10-13T22:11:12.535Z,94.60
2022-10-13T22:13:39.843Z,105.97
2022-10-13T22:16:13.599Z,102.40
2022-10-13T22:18:41.030Z,99.32
2022-10-13T22:21:12.885Z,98.63
2022-10-13T22:23:39.820Z,106.32
2022-10-13T22:26:08.850Z,115.53
2022-10-13T22:28:37.410Z,112.88
2022-10-13T22:31:11.625Z,162.82
2022-10-13T22:33:40.182Z,115.72
2022-10-13T22:36:15.050Z,86.38
2022-10-13T22:38:42.786Z,93.80
2022-10-13T23:15:34.477Z,71.22
2022-10-13T23:20:28.385Z,105.30
2022-10-13T23:22:55.361Z,111.43
